createdAt,value
2022-08-01T00:00:09.289Z,5.57
2022-08-01T00:02:40.513Z,6.13
2022-08-01T00:05:08.921Z,5.57
2022-08-01T00:07:36.516Z,6.30
2022-08-01T00:10:09.030Z,5.22
2022-08-01T00:12:36.068Z,7.57
2022-08-01T00:15:03.645Z,7.85
2022-08-01T00:17:30.315Z,9.73
2022-08-01T00:19:57.037Z,7.40
2022-08-01T00:22:23.817Z,7.80
2022-08-01T00:24:50.880Z,10.13
2022-08-01T00:27:17.601Z,5.43
2022-08-01T00:30:12.217Z,7.78
2022-08-01T00:32:32.491Z,11.68
2022-08-01T00:34:59.320Z,5.90
2022-08-01T00:37:26.241Z,7.65
2022-08-01T00:39:53.088Z,9.57
2022-08-01T00:42:20.183Z,9.07
2022-08-01T00:44:46.914Z,8.85
2022-08-01T00:47:13.618Z,9.07
2022-08-01T00:49:40.547Z,7.57
2022-08-01T00:52:09.558Z,12.38
2022-08-01T00:54:36.640Z,9.23
2022-08-01T00:57:04.767Z,9.55
2022-08-01T00:59:34.195Z,9.55
2022-08-01T01:02:01.345Z,6.45
2022-08-01T01:04:28.050Z,9.77
2022-08-01T01:07:14.997Z,9.32
2022-08-01T01:09:45.925Z,12.50
2022-08-01T01:12:29.510Z,7.93
2022-08-01T01:15:07.538Z,9.60
2022-08-01T01:18:00.782Z,12.43
2022-08-01T01:20:52.502Z,10.75
2022-08-01T01:26:15.405Z,14.15
2022-08-01T01:31:13.284Z,10.95
2022-08-01T01:33:47.077Z,12.23
2022-08-01T01:36:16.858Z,11.88
2022-08-01T01:38:46.217Z,13.55
2022-08-01T01:41:15.090Z,12.35
2022-08-01T01:43:42.250Z,12.93
2022-08-01T01:46:11.879Z,13.43
2022-08-01T01:48:40.895Z,12.68
2022-08-01T01:51:08.790Z,13.18
2022-08-01T01:53:37.082Z,13.82
2022-08-01T01:56:04.438Z,11.60
2022-08-01T01:58:34.986Z,13.60
2022-08-01T02:01:03.672Z,12.85
2022-08-01T02:03:32.174Z,12.35
2022-08-01T02:06:00.135Z,12.82
2022-08-01T02:08:28.376Z,15.60
2022-08-01T02:11:17.874Z,15.93
2022-08-01T02:13:45.913Z,13.15
2022-08-01T02:16:13.623Z,14.57
2022-08-01T02:18:40.602Z,12.18
2022-08-01T02:21:12.849Z,11.73
2022-08-01T02:23:41.134Z,12.95
2022-08-01T02:26:16.832Z,13.70
2022-08-01T02:29:01.670Z,11.45
2022-08-01T02:31:33.109Z,10.80
2022-08-01T02:36:33.519Z,12.10
2022-08-01T02:39:04.331Z,11.20
2022-08-01T02:41:32.841Z,13.23
2022-08-01T02:44:04.411Z,15.70
2022-08-01T02:46:37.248Z,13.13
2022-08-01T02:49:07.744Z,13.82
2022-08-01T02:51:37.129Z,12.52
2022-08-01T02:54:07.279Z,11.80
2022-08-01T02:56:38.194Z,13.30
2022-08-01T02:59:14.327Z,12.15
2022-08-01T03:01:44.097Z,11.68
2022-08-01T03:04:12.552Z,10.65
2022-08-01T03:06:40.149Z,12.43
2022-08-01T03:09:10.692Z,10.95
2022-08-01T03:11:42.571Z,9.25
2022-08-01T03:14:11.874Z,13.40
2022-08-01T03:16:42.912Z,11.13
2022-08-01T03:19:11.924Z,8.98
2022-08-01T03:21:39.960Z,11.73
2022-08-01T03:24:08.874Z,10.85
2022-08-01T03:26:39.263Z,14.93
2022-08-01T03:29:10.873Z,11.05
2022-08-01T03:31:39.274Z,11.13
2022-08-01T03:34:07.163Z,10.30
2022-08-01T03:36:38.150Z,12.40
2022-08-01T03:39:08.118Z,10.50
2022-08-01T03:41:41.537Z,10.75
2022-08-01T03:44:31.529Z,10.65
2022-08-01T03:47:03.286Z,10.52
2022-08-01T03:49:33.217Z,10.45
2022-08-01T03:52:02.454Z,11.05
2022-08-01T03:54:36.870Z,9.90
2022-08-01T03:57:03.938Z,10.27
2022-08-01T03:59:32.119Z,8.60
2022-08-01T04:01:59.602Z,11.57
2022-08-01T04:04:26.838Z,11.95
2022-08-01T04:06:54.977Z,8.40
2022-08-01T04:09:22.759Z,7.78
2022-08-01T04:11:50.130Z,8.20
2022-08-01T04:14:17.022Z,9.05
2022-08-01T04:16:44.070Z,10.90
2022-08-01T04:19:10.828Z,8.63
2022-08-01T04:21:38.305Z,12.77
2022-08-01T04:24:13.496Z,9.77
2022-08-01T04:26:42.309Z,8.82
2022-08-01T04:29:10.351Z,10.60
2022-08-01T04:31:40.485Z,11.27
2022-08-01T04:34:08.231Z,9.93
2022-08-01T04:36:37.822Z,10.90
2022-08-01T04:39:06.952Z,12.48
2022-08-01T04:41:34.772Z,12.05
2022-08-01T04:44:03.677Z,12.02
2022-08-01T04:46:30.711Z,14.05
2022-08-01T04:48:58.443Z,13.43
2022-08-01T04:51:25.364Z,10.65
2022-08-01T04:53:52.531Z,10.98
2022-08-01T04:56:21.696Z,10.30
2022-08-01T04:58:48.891Z,11.20
2022-08-01T05:01:16.594Z,6.75
2022-08-01T05:03:43.460Z,13.18
2022-08-01T05:06:10.178Z,10.13
2022-08-01T05:08:37.148Z,7.63
2022-08-01T05:11:04.360Z,7.70
2022-08-01T05:13:31.455Z,8.13
2022-08-01T05:15:58.155Z,9.50
2022-08-01T05:18:28.525Z,5.95
2022-08-01T05:20:55.968Z,4.47
2022-08-01T05:23:31.012Z,5.28
2022-08-01T05:26:10.164Z,3.47
2022-08-01T05:28:36.937Z,2.80
2022-08-01T05:31:04.494Z,3.10
2022-08-01T05:33:31.241Z,5.15
2022-08-01T05:35:57.907Z,3.20
2022-08-01T05:38:24.618Z,4.25
2022-08-01T05:40:51.730Z,3.83
2022-08-01T05:43:18.474Z,2.67
2022-08-01T05:45:46.921Z,3.40
2022-08-01T05:48:13.852Z,8.40
2022-08-01T05:50:40.827Z,5.72
2022-08-01T05:53:07.557Z,5.72
2022-08-01T05:55:34.326Z,4.57
2022-08-01T05:58:01.022Z,3.88
2022-08-01T06:00:27.733Z,4.43
2022-08-01T06:02:54.489Z,3.05
2022-08-01T06:05:21.337Z,2.95
2022-08-01T06:07:48.007Z,4.13
2022-08-01T06:10:14.735Z,3.63
2022-08-01T06:12:41.659Z,3.88
2022-08-01T06:15:08.823Z,4.95
2022-08-01T06:17:35.576Z,3.65
2022-08-01T06:20:02.407Z,2.78
2022-08-01T06:22:29.182Z,3.35
2022-08-01T06:24:57.602Z,3.28
2022-08-01T06:27:25.855Z,3.53
2022-08-01T06:29:54.563Z,2.00
2022-08-01T06:32:27.455Z,1.98
2022-08-01T06:34:55.664Z,2.53
2022-08-01T06:37:23.078Z,2.75
2022-08-01T06:39:50.648Z,4.25
2022-08-01T06:42:18.242Z,2.33
2022-08-01T06:44:45.057Z,2.60
2022-08-01T06:47:11.849Z,3.78
2022-08-01T06:49:38.616Z,6.47
2022-08-01T06:52:05.875Z,6.07
2022-08-01T06:54:32.785Z,5.85
2022-08-01T06:56:59.471Z,4.97
2022-08-01T06:59:26.154Z,4.32
2022-08-01T07:01:52.832Z,7.05
2022-08-01T07:04:19.495Z,4.65
2022-08-01T07:06:46.180Z,6.43
2022-08-01T07:09:14.644Z,5.65
2022-08-01T07:11:41.915Z,4.63
2022-08-01T07:14:09.017Z,6.28
2022-08-01T07:16:35.781Z,5.72
2022-08-01T07:19:02.497Z,6.88
2022-08-01T07:21:40.135Z,8.32
2022-08-01T07:24:15.069Z,10.48
2022-08-01T07:26:53.984Z,8.93
2022-08-01T07:29:22.939Z,9.02
2022-08-01T07:31:49.651Z,8.63
2022-08-01T07:34:16.344Z,11.75
2022-08-01T07:36:43.714Z,13.23
2022-08-01T07:39:10.560Z,10.15
2022-08-01T07:41:54.640Z,14.07
2022-08-01T07:44:24.211Z,13.35
2022-08-01T07:46:54.932Z,13.18
2022-08-01T07:49:22.795Z,9.02
2022-08-01T07:52:03.471Z,12.98
2022-08-01T07:57:02.639Z,9.82
2022-08-01T07:59:29.338Z,10.77
2022-08-01T08:01:56.178Z,8.48
2022-08-01T08:04:22.942Z,13.48
2022-08-01T08:06:50.172Z,8.65
2022-08-01T08:09:17.082Z,10.85
2022-08-01T08:11:47.847Z,13.23
2022-08-01T08:14:15.486Z,9.77
2022-08-01T08:16:43.807Z,12.82
2022-08-01T08:19:10.922Z,6.70
2022-08-01T08:21:38.722Z,13.63
2022-08-01T08:24:26.230Z,11.98
2022-08-01T08:27:01.869Z,11.68
2022-08-01T08:29:31.419Z,10.85
2022-08-01T08:31:59.009Z,17.65
2022-08-01T08:34:26.905Z,13.15
2022-08-01T08:36:55.678Z,11.25
2022-08-01T08:39:23.034Z,15.85
2022-08-01T08:41:50.283Z,10.68
2022-08-01T08:44:18.422Z,12.38
2022-08-01T08:46:49.679Z,9.27
2022-08-01T08:49:27.825Z,10.73
2022-08-01T08:52:05.567Z,13.13
2022-08-01T08:54:39.068Z,8.65
2022-08-01T08:57:08.039Z,9.32
2022-08-01T08:59:35.212Z,10.85
2022-08-01T09:02:02.129Z,11.15
2022-08-01T09:04:29.078Z,13.50
2022-08-01T09:06:56.416Z,8.10
2022-08-01T09:09:24.421Z,9.23
2022-08-01T09:11:57.580Z,9.63
2022-08-01T09:14:28.073Z,6.15
2022-08-01T09:17:03.750Z,12.43
2022-08-01T09:19:52.591Z,9.00
2022-08-01T09:22:24.049Z,11.60
2022-08-01T09:25:09.531Z,10.27
2022-08-01T09:27:39.149Z,7.22
2022-08-01T09:30:23.811Z,10.82
2022-08-01T09:33:06.160Z,11.57
2022-08-01T09:35:43.167Z,8.23
2022-08-01T09:38:24.821Z,8.65
2022-08-01T09:40:58.287Z,10.00
2022-08-01T09:43:28.474Z,7.00
2022-08-01T09:45:58.049Z,13.93
2022-08-01T09:48:28.663Z,5.93
2022-08-01T09:51:04.499Z,10.48
2022-08-01T09:53:51.057Z,7.43
2022-08-01T09:56:20.905Z,13.05
2022-08-01T09:58:59.510Z,9.23
2022-08-01T10:01:37.006Z,12.15
2022-08-01T10:04:10.475Z,6.93
2022-08-01T10:06:38.121Z,7.18
2022-08-01T10:09:05.503Z,10.90
2022-08-01T10:11:35.815Z,8.30
2022-08-01T10:14:04.080Z,9.20
2022-08-01T10:16:33.013Z,7.05
2022-08-01T10:19:00.453Z,8.80
2022-08-01T10:21:57.045Z,4.25
2022-08-01T10:24:18.747Z,7.60
2022-08-01T10:26:48.780Z,7.78
2022-08-01T10:29:46.287Z,6.50
2022-08-01T10:32:10.128Z,7.20
2022-08-01T10:34:38.258Z,6.67
2022-08-01T10:37:08.985Z,7.35
2022-08-01T10:39:35.989Z,6.28
2022-08-01T10:42:05.836Z,5.68
2022-08-01T10:44:37.978Z,12.07
2022-08-01T10:47:12.142Z,6.63
2022-08-01T10:49:51.926Z,10.35
2022-08-01T10:52:19.599Z,5.25
2022-08-01T10:54:52.227Z,10.32
2022-08-01T10:57:23.187Z,8.60
2022-08-01T10:59:59.292Z,5.88
2022-08-01T11:02:32.274Z,9.77
2022-08-01T11:05:05.611Z,5.97
2022-08-01T11:07:52.745Z,7.45
2022-08-01T11:10:28.470Z,12.85
2022-08-01T11:12:55.656Z,9.23
2022-08-01T11:15:29.956Z,8.20
2022-08-01T11:18:00.535Z,11.75
2022-08-01T11:20:31.568Z,8.18
2022-08-01T11:23:07.593Z,6.40
2022-08-01T11:26:05.786Z,4.80
2022-08-01T11:28:33.102Z,5.20
2022-08-01T11:31:11.354Z,4.43
2022-08-01T11:33:41.036Z,6.22
2022-08-01T11:36:16.883Z,2.65
2022-08-01T11:38:46.940Z,4.65
2022-08-01T11:41:37.579Z,4.20
2022-08-01T11:44:21.233Z,4.55
2022-08-01T11:46:56.542Z,4.72
2022-08-01T11:49:39.418Z,2.58
2022-08-01T11:52:17.877Z,3.92
2022-08-01T11:55:05.522Z,3.53
2022-08-01T11:57:38.250Z,3.70
2022-08-01T12:00:16.984Z,5.13
2022-08-01T12:02:58.981Z,4.82
2022-08-01T12:07:54.471Z,7.40
2022-08-01T12:10:23.775Z,3.03
2022-08-01T12:12:55.658Z,4.15
2022-08-01T12:15:25.384Z,3.42
2022-08-01T12:18:00.051Z,3.40
2022-08-01T12:20:33.749Z,3.47
2022-08-01T12:23:08.425Z,3.85
2022-08-01T12:25:36.568Z,5.57
2022-08-01T12:28:11.137Z,3.13
2022-08-01T12:30:38.718Z,4.38
2022-08-01T12:33:11.206Z,4.90
2022-08-01T12:35:39.461Z,3.28
2022-08-01T12:38:17.875Z,3.80
2022-08-01T12:40:48.239Z,4.25
2022-08-01T12:43:28.001Z,2.92
2022-08-01T12:46:00.922Z,5.15
2022-08-01T12:48:28.515Z,3.35
2022-08-01T12:50:58.689Z,2.47
2022-08-01T12:53:27.022Z,4.60
2022-08-01T12:56:06.848Z,2.60
2022-08-01T12:58:34.608Z,4.63
2022-08-01T13:01:06.785Z,2.88
2022-08-01T13:03:33.632Z,3.97
2022-08-01T13:06:01.141Z,4.85
2022-08-01T13:08:33.247Z,4.18
2022-08-01T13:11:10.600Z,5.07
2022-08-01T13:13:51.440Z,4.07
2022-08-01T13:16:30.742Z,4.15
2022-08-01T13:19:09.915Z,4.57
2022-08-01T13:21:54.312Z,4.85
2022-08-01T13:24:29.221Z,2.85
2022-08-01T13:27:01.713Z,4.22
2022-08-01T13:29:34.938Z,5.97
2022-08-01T13:32:27.681Z,3.05
2022-08-01T13:35:07.095Z,3.60
2022-08-01T13:37:34.897Z,5.20
2022-08-01T13:40:04.251Z,2.33
2022-08-01T13:42:30.968Z,3.88
2022-08-01T13:44:57.709Z,5.30
2022-08-01T13:47:31.671Z,3.25
2022-08-01T13:50:01.588Z,3.05
2022-08-01T13:52:29.070Z,5.15
2022-08-01T13:54:55.801Z,2.10
2022-08-01T13:57:22.820Z,2.42
2022-08-01T13:59:49.682Z,4.47
2022-08-01T14:02:16.453Z,4.05
2022-08-01T14:04:43.218Z,2.95
2022-08-01T14:07:14.721Z,6.28
2022-08-01T14:09:45.042Z,5.20
2022-08-01T14:12:29.802Z,1.65
2022-08-01T14:14:57.279Z,4.55
2022-08-01T14:17:24.227Z,4.28
2022-08-01T14:19:50.920Z,6.57
2022-08-01T14:22:17.651Z,9.75
2022-08-01T14:24:44.335Z,2.10
2022-08-01T14:27:11.271Z,6.00
2022-08-01T14:30:02.029Z,2.80
2022-08-01T14:32:28.952Z,4.90
2022-08-01T14:34:57.677Z,1.75
2022-08-01T14:37:28.739Z,3.83
2022-08-01T14:39:58.849Z,5.78
2022-08-01T14:42:26.733Z,1.55
2022-08-01T14:44:53.447Z,3.50
2022-08-01T14:47:21.876Z,1.48
2022-08-01T14:49:49.934Z,2.63
2022-08-01T14:52:17.021Z,3.55
2022-08-01T14:54:43.743Z,4.55
2022-08-01T14:57:11.010Z,3.08
2022-08-01T14:59:37.701Z,2.50
2022-08-01T15:02:04.994Z,3.42
2022-08-01T15:04:31.968Z,2.65
2022-08-01T15:06:58.738Z,3.47
2022-08-01T15:09:25.448Z,4.43
2022-08-01T15:11:52.196Z,2.55
2022-08-01T15:14:37.345Z,1.85
2022-08-01T15:17:04.057Z,4.28
2022-08-01T15:19:30.750Z,1.67
2022-08-01T15:21:57.484Z,4.72
2022-08-01T15:24:26.093Z,3.25
2022-08-01T15:26:52.843Z,3.17
2022-08-01T15:29:19.723Z,2.45
2022-08-01T15:31:46.677Z,7.20
2022-08-01T15:34:13.371Z,1.70
2022-08-01T15:36:46.809Z,4.47
2022-08-01T15:39:15.941Z,3.50
2022-08-01T15:41:42.751Z,3.60
2022-08-01T15:44:09.529Z,2.83
2022-08-01T15:46:36.318Z,3.10
2022-08-01T15:49:05.461Z,4.10
2022-08-01T15:51:32.966Z,2.75
2022-08-01T15:54:03.501Z,2.13
2022-08-01T15:56:31.014Z,4.27
2022-08-01T15:58:58.035Z,2.47
2022-08-01T16:01:26.783Z,3.90
2022-08-01T16:03:55.219Z,3.08
2022-08-01T16:06:22.007Z,3.25
2022-08-01T16:08:48.812Z,2.50
2022-08-01T16:11:15.768Z,2.88
2022-08-01T16:13:44.996Z,4.28
2022-08-01T16:16:12.685Z,4.05
2022-08-01T16:18:39.461Z,5.65
2022-08-01T16:21:11.558Z,5.88
2022-08-01T16:23:39.305Z,3.83
2022-08-01T16:26:06.465Z,3.50
2022-08-01T16:28:53.042Z,4.47
2022-08-01T16:31:26.727Z,2.33
2022-08-01T16:34:05.236Z,1.92
2022-08-01T16:36:32.008Z,2.30
2022-08-01T16:38:58.695Z,8.52
2022-08-01T16:41:25.389Z,2.38
2022-08-01T16:43:53.907Z,3.03
2022-08-01T16:46:25.514Z,2.63
2022-08-01T16:48:53.417Z,2.85
2022-08-01T16:51:20.403Z,2.63
2022-08-01T16:53:47.146Z,4.95
2022-08-01T16:56:13.831Z,3.45
2022-08-01T16:58:40.584Z,4.25
2022-08-01T17:01:58.493Z,4.40
2022-08-01T17:03:58.067Z,3.35
2022-08-01T17:06:27.659Z,3.90
2022-08-01T17:08:54.345Z,3.97
2022-08-01T17:11:21.090Z,3.65
2022-08-01T17:13:47.898Z,6.07
2022-08-01T17:16:14.659Z,4.07
2022-08-01T17:18:41.378Z,5.63
2022-08-01T17:21:08.209Z,4.88
2022-08-01T17:23:35.783Z,3.47
2022-08-01T17:26:03.221Z,2.50
2022-08-01T17:28:30.054Z,3.08
2022-08-01T17:30:56.958Z,3.35
2022-08-01T17:33:23.785Z,3.85
2022-08-01T17:36:10.522Z,4.15
2022-08-01T17:38:39.989Z,3.88
2022-08-01T17:41:07.082Z,4.85
2022-08-01T17:43:33.741Z,4.10
2022-08-01T17:46:00.435Z,3.95
2022-08-01T17:48:28.194Z,4.22
2022-08-01T17:50:54.929Z,5.32
2022-08-01T17:53:23.615Z,4.45
2022-08-01T17:55:53.932Z,4.55
2022-08-01T17:58:36.715Z,3.05
2022-08-01T18:01:11.000Z,3.55
2022-08-01T18:03:40.985Z,4.95
2022-08-01T18:06:14.466Z,3.75
2022-08-01T18:08:42.948Z,4.32
2022-08-01T18:11:10.244Z,4.28
2022-08-01T18:13:40.882Z,5.15
2022-08-01T18:16:09.205Z,4.53
2022-08-01T18:18:36.828Z,6.85
2022-08-01T18:21:04.173Z,4.53
2022-08-01T18:23:31.966Z,3.70
2022-08-01T18:26:02.482Z,4.40
2022-08-01T18:28:38.015Z,5.60
2022-08-01T18:31:08.751Z,4.85
2022-08-01T18:33:36.034Z,4.85
2022-08-01T18:36:04.425Z,5.38
2022-08-01T18:38:33.139Z,7.43
2022-08-01T18:41:10.357Z,4.70
2022-08-01T18:43:37.287Z,3.60
2022-08-01T18:46:06.185Z,5.13
2022-08-01T18:48:33.030Z,6.05
2022-08-01T18:51:00.779Z,3.95
2022-08-01T18:53:28.278Z,10.95
2022-08-01T18:55:54.985Z,5.03
2022-08-01T18:58:22.236Z,6.30
2022-08-01T19:00:49.172Z,2.45
2022-08-01T19:03:16.796Z,4.38
2022-08-01T19:05:44.154Z,6.03
2022-08-01T19:08:11.545Z,5.50
2022-08-01T19:10:42.055Z,4.38
2022-08-01T19:13:08.949Z,4.47
2022-08-01T19:15:36.123Z,4.65
2022-08-01T19:18:03.251Z,4.20
2022-08-01T19:20:32.658Z,9.75
2022-08-01T19:22:59.420Z,4.30
2022-08-01T19:25:26.433Z,4.28
2022-08-01T19:27:56.263Z,5.30
2022-08-01T19:30:24.169Z,4.68
2022-08-01T19:32:53.797Z,5.50
2022-08-01T19:35:25.337Z,3.70
2022-08-01T19:37:54.196Z,6.60
2022-08-01T19:40:26.697Z,6.78
2022-08-01T19:42:55.306Z,2.67
2022-08-01T19:45:22.615Z,3.50
2022-08-01T19:47:56.122Z,4.25
2022-08-01T19:50:24.223Z,6.18
2022-08-01T19:52:52.713Z,8.02
2022-08-01T19:55:19.616Z,4.78
2022-08-01T19:57:59.250Z,4.95
2022-08-01T20:00:38.201Z,7.97
2022-08-01T20:03:05.553Z,6.83
2022-08-01T20:05:32.768Z,3.28
2022-08-01T20:07:59.841Z,3.97
2022-08-01T20:10:26.825Z,9.60
2022-08-01T20:12:56.885Z,5.50
2022-08-01T20:15:24.638Z,4.88
2022-08-01T20:17:51.398Z,9.27
2022-08-01T20:20:18.108Z,4.75
2022-08-01T20:22:48.704Z,3.95
2022-08-01T20:25:17.526Z,2.83
2022-08-01T20:27:45.593Z,3.97
2022-08-01T20:30:12.780Z,4.68
2022-08-01T20:32:40.847Z,6.32
2022-08-01T20:35:10.542Z,4.43
2022-08-01T20:38:03.648Z,3.72
2022-08-01T20:40:30.368Z,2.60
2022-08-01T20:42:57.886Z,3.88
2022-08-01T20:45:26.247Z,6.07
2022-08-01T20:47:55.740Z,4.88
2022-08-01T20:50:54.373Z,6.57
2022-08-01T20:53:23.748Z,2.95
2022-08-01T20:55:59.531Z,2.85
2022-08-01T20:58:45.461Z,2.28
2022-08-01T21:01:17.556Z,4.47
2022-08-01T21:04:04.378Z,5.30
2022-08-01T21:06:48.001Z,3.97
2022-08-01T21:09:20.182Z,5.93
2022-08-01T21:11:49.489Z,4.93
2022-08-01T21:14:20.973Z,6.63
2022-08-01T21:19:27.772Z,5.10
2022-08-01T21:22:09.920Z,4.90
2022-08-01T21:24:59.126Z,4.78
2022-08-01T21:27:33.431Z,4.40
2022-08-01T21:30:06.167Z,4.20
2022-08-01T21:32:37.536Z,6.20
2022-08-01T21:35:05.873Z,5.88
2022-08-01T21:37:44.610Z,8.63
2022-08-01T21:40:14.642Z,5.55
2022-08-01T21:42:45.978Z,4.15
2022-08-01T21:45:16.168Z,5.78
2022-08-01T21:47:43.408Z,4.35
2022-08-01T21:50:10.389Z,6.18
2022-08-01T21:53:03.237Z,3.50
2022-08-01T21:55:56.736Z,5.88
2022-08-01T21:58:41.304Z,5.53
2022-08-01T22:01:26.605Z,4.85
2022-08-01T22:03:58.546Z,6.72
2022-08-01T22:06:26.637Z,4.43
2022-08-01T22:08:56.267Z,3.08
2022-08-01T22:11:27.882Z,6.85
2022-08-01T22:16:25.307Z,6.75
2022-08-01T22:18:52.727Z,4.43
2022-08-01T22:21:20.207Z,5.57
2022-08-01T22:23:47.727Z,6.35
2022-08-01T22:26:14.516Z,4.35
2022-08-01T22:28:41.350Z,2.08
2022-08-01T22:31:08.309Z,2.50
2022-08-01T22:33:39.068Z,5.32
2022-08-01T22:36:07.111Z,4.27
2022-08-01T22:38:34.986Z,6.15
2022-08-01T22:41:05.248Z,2.47
2022-08-01T22:43:46.917Z,4.18
2022-08-01T22:46:19.548Z,3.92
2022-08-01T22:48:51.619Z,5.45
2022-08-01T22:51:39.588Z,5.20
2022-08-01T22:54:14.007Z,3.83
2022-08-01T22:56:50.309Z,2.85
2022-08-01T22:59:20.636Z,5.95
2022-08-01T23:01:51.640Z,3.40
2022-08-01T23:04:33.053Z,3.28
2022-08-01T23:07:04.489Z,4.05
2022-08-01T23:09:52.888Z,3.47
2022-08-01T23:12:23.304Z,3.80
2022-08-01T23:14:55.560Z,4.80
2022-08-01T23:17:27.061Z,7.90
2022-08-01T23:19:57.633Z,3.63
2022-08-01T23:22:27.401Z,3.97
2022-08-01T23:25:03.746Z,3.00
2022-08-01T23:28:03.982Z,7.22
2022-08-01T23:30:25.681Z,4.60
2022-08-01T23:32:52.485Z,4.22
2022-08-01T23:35:19.436Z,3.20
2022-08-01T23:37:46.189Z,3.63
2022-08-01T23:40:13.321Z,5.95
2022-08-01T23:42:40.079Z,3.33
2022-08-01T23:45:07.403Z,5.22
2022-08-01T23:47:34.194Z,5.00
2022-08-01T23:50:00.889Z,4.68
2022-08-01T23:52:32.344Z,3.58
2022-08-01T23:55:03.433Z,3.72
2022-08-01T23:57:41.850Z,6.95
